Pagina principală
METAR-TAF:

METAR-TAF

Aeroporturi :

NWS Office

Majuro, Insulele Marshall

Latitudine: 07-05N, longitudine: 171-12E, elevație: 4 m

Observații meteo curente

Raportul a fost făcut în urmă cu 59 de minute, la 14:51 UTC
Vânt 12 kt de la Est
Temperatură 25°C
Umiditate 94%
Presiune 1006 hPa
Vizibilitate: 9.7 km
Nori fragmentați la o înălțime de 1400 picior, Cumulus congestus.
Total acoperit la o înălțime de 4500 picior
averse de ploaie

METAR: PKMR 181451Z 09012KT 6SM SHRA BKN014TCU OVC045 25/24 A2971 RMK TCU ALQDS SLP063 60141 8/8// T02520240 58015

Ora: 03:50 (15:50 UTC)


TAF: lipsă

Observații și prognoze meteo pentru peste 4.000 de aeroporturi (rapoarte METAR și TAF).

Stațiile disponibile sunt reprezentate pe hartă prin puncte galbene și roșii.

Țineți indicatorul mouse-ului pe punctul dorit pentru a vedea denumirea stației.

Apoi, faceți clic pentru a vedea observațiile și prognozele meteorologice.

Pentru a schimba harta: Pentru mărire, faceți clic pe butoanele verzi cu cruce neagră; pentru micșorare, pe butonul verde cu o liniuță; pentru hărți învecinate, pe săgețile verzi.


METAR-TAF: